Time;durP1;ratioP1;P1;durP2;ratioP2;P2;SDS_P1;SDS_P2;PMS_P1;PMS_P2;Temp;Humidity;BMP_temperature;BMP_pressure;BME280_temperature;BME280_humidity;BME280_pressure;Samples;Min_cycle;Max_cycle;Signal;HPM_P1;HPM_P2
2023/09/12 00:00:06;;;;;;;20.00;16.77;;;;;;;;;;4956286;29;20054;-66
2023/09/12 00:02:33;;;;;;;18.73;16.60;;;;;;;;;;4956191;29;20129;-67
2023/09/12 00:05:00;;;;;;;19.58;15.73;;;;;;;;;;4956224;29;20047;-65
2023/09/12 00:07:26;;;;;;;20.30;16.90;;;;;;;;;;4956164;29;20051;-66
2023/09/12 00:09:53;;;;;;;17.25;15.32;;;;;;;;;;4955949;29;20134;-66
2023/09/12 00:12:24;;;;;;;17.98;15.07;;;;;;;;;;4955999;29;20523;-66
2023/09/12 00:14:51;;;;;;;19.00;16.20;;;;;;;;;;4955755;29;20054;-66
2023/09/12 00:17:17;;;;;;;20.50;16.63;;;;;;;;;;4956000;29;20052;-66
2023/09/12 00:19:44;;;;;;;18.63;14.82;;;;;;;;;;4955809;28;20489;-66
2023/09/12 00:22:11;;;;;;;17.77;15.90;;;;;;;;;;4955654;29;20051;-67
2023/09/12 00:24:37;;;;;;;18.60;15.38;;;;;;;;;;4955701;29;20053;-67
2023/09/12 00:27:05;;;;;;;18.42;16.00;;;;;;;;;;4955528;29;20062;-68
2023/09/12 00:29:34;;;;;;;21.55;16.35;;;;;;;;;;4955820;29;20051;-67
2023/09/12 00:32:00;;;;;;;17.77;15.77;;;;;;;;;;4955406;29;20054;-66
2023/09/12 00:34:27;;;;;;;21.15;16.77;;;;;;;;;;4955663;29;20400;-66
2023/09/12 00:36:54;;;;;;;19.02;17.02;;;;;;;;;;4955662;29;20134;-66
2023/09/12 00:39:20;;;;;;;18.45;16.45;;;;;;;;;;4955167;29;20049;-67
2023/09/12 00:41:47;;;;;;;18.52;16.52;;;;;;;;;;4955542;29;20047;-67
2023/09/12 00:44:13;;;;;;;19.00;17.00;;;;;;;;;;4955572;29;20055;-68
2023/09/12 00:46:42;;;;;;;18.02;16.05;;;;;;;;;;4955474;29;20139;-66
2023/09/12 00:49:09;;;;;;;19.52;17.42;;;;;;;;;;4955378;29;20044;-66
2023/09/12 00:51:37;;;;;;;21.55;17.77;;;;;;;;;;4955614;29;20051;-66
2023/09/12 00:54:04;;;;;;;19.52;17.35;;;;;;;;;;4955556;29;20063;-66
2023/09/12 00:56:31;;;;;;;20.38;18.15;;;;;;;;;;4956037;29;20142;-66
2023/09/12 00:58:58;;;;;;;21.98;18.52;;;;;;;;;;4955516;29;20043;-65
2023/09/12 01:01:25;;;;;;;20.08;17.15;;;;;;;;;;4955280;29;20114;-66
2023/09/12 01:03:53;;;;;;;20.77;17.95;;;;;;;;;;4954919;29;20134;-67
2023/09/12 01:06:22;;;;;;;20.30;17.73;;;;;;;;;;4954989;29;20066;-67
2023/09/12 01:08:49;;;;;;;20.77;17.33;;;;;;;;;;4955463;29;20061;-66
2023/09/12 01:11:17;;;;;;;20.25;17.15;;;;;;;;;;4954858;29;20125;-67
2023/09/12 01:13:44;;;;;;;20.40;17.02;;;;;;;;;;4955124;29;20153;-67
2023/09/12 01:16:11;;;;;;;21.42;18.58;;;;;;;;;;4954870;29;20130;-66
2023/09/12 01:18:38;;;;;;;20.80;17.63;;;;;;;;;;4954707;29;20131;-66
2023/09/12 01:21:38;;;;;;;19.02;17.02;;;;;;;;;;4955118;29;20057;-67
2023/09/12 01:24:26;;;;;;;19.80;17.60;;;;;;;;;;4955067;29;20385;-65
2023/09/12 01:27:00;;;;;;;23.05;18.13;;;;;;;;;;4954924;29;20051;-67
2023/09/12 01:29:30;;;;;;;20.83;18.30;;;;;;;;;;4954822;29;20055;-67
2023/09/12 01:31:59;;;;;;;19.88;17.17;;;;;;;;;;4954394;28;20051;-67
2023/09/12 01:34:25;;;;;;;18.27;16.30;;;;;;;;;;4954573;29;20094;-67
2023/09/12 01:36:52;;;;;;;19.33;15.95;;;;;;;;;;4954629;29;20412;-67
2023/09/12 01:39:19;;;;;;;19.90;17.63;;;;;;;;;;4954684;29;20499;-68
2023/09/12 01:41:48;;;;;;;19.25;16.35;;;;;;;;;;4973182;23;20416;-83
2023/09/12 01:44:15;;;;;;;17.95;16.00;;;;;;;;;;4959097;29;20050;-83
2023/09/12 01:46:44;;;;;;;19.60;17.40;;;;;;;;;;4958258;29;20047;-83
2023/09/12 01:49:12;;;;;;;17.63;15.35;;;;;;;;;;4958979;29;20051;-84
2023/09/12 01:51:39;;;;;;;20.10;15.77;;;;;;;;;;4959024;28;20054;-84
2023/09/12 01:54:07;;;;;;;20.35;15.98;;;;;;;;;;4959007;29;20056;-84
2023/09/12 01:56:34;;;;;;;17.60;14.77;;;;;;;;;;4959032;29;20237;-85
2023/09/12 01:59:01;;;;;;;18.05;15.50;;;;;;;;;;4958498;29;20429;-83
2023/09/12 02:01:28;;;;;;;18.48;15.57;;;;;;;;;;4959664;28;20057;-81
2023/09/12 02:03:56;;;;;;;17.33;15.07;;;;;;;;;;4958697;29;20111;-85
2023/09/12 02:06:23;;;;;;;17.27;15.18;;;;;;;;;;4958652;29;20062;-83
2023/09/12 02:08:50;;;;;;;17.67;15.50;;;;;;;;;;4958814;29;20043;-85
2023/09/12 02:11:16;;;;;;;17.48;15.65;;;;;;;;;;4958852;28;20130;-85
2023/09/12 02:13:43;;;;;;;18.63;16.13;;;;;;;;;;4958844;29;20055;-84
2023/09/12 02:16:13;;;;;;;21.63;19.27;;;;;;;;;;4958611;29;20047;-86
2023/09/12 02:18:39;;;;;;;19.88;16.35;;;;;;;;;;4958203;29;20047;-85
2023/09/12 02:21:07;;;;;;;18.92;16.92;;;;;;;;;;4958567;29;20433;-84
2023/09/12 02:23:34;;;;;;;17.95;16.00;;;;;;;;;;4958512;29;20209;-83
2023/09/12 02:26:00;;;;;;;17.92;15.40;;;;;;;;;;4959643;29;20134;-85
2023/09/12 02:28:27;;;;;;;17.73;15.80;;;;;;;;;;4958105;29;20056;-84
2023/09/12 02:30:53;;;;;;;18.90;16.05;;;;;;;;;;4958180;28;20142;-85
2023/09/12 02:33:21;;;;;;;21.25;16.13;;;;;;;;;;4958539;29;20051;-84
2023/09/12 02:35:47;;;;;;;18.40;15.48;;;;;;;;;;4958861;29;20051;-83
2023/09/12 02:38:16;;;;;;;16.80;15.00;;;;;;;;;;4958376;29;20061;-84
2023/09/12 02:40:42;;;;;;;17.17;14.63;;;;;;;;;;4956794;29;20103;-84
2023/09/12 02:43:09;;;;;;;17.25;15.40;;;;;;;;;;4956936;28;20047;-85
2023/09/12 02:45:35;;;;;;;17.27;14.50;;;;;;;;;;4961201;29;20054;-84
2023/09/12 02:48:02;;;;;;;18.35;14.93;;;;;;;;;;4954565;29;20043;-84
2023/09/12 02:50:28;;;;;;;17.65;14.85;;;;;;;;;;4963168;29;20497;-85
2023/09/12 02:52:55;;;;;;;17.40;15.60;;;;;;;;;;4962852;28;20047;-84
2023/09/12 02:55:23;;;;;;;15.90;14.02;;;;;;;;;;4954902;29;20055;-85
2023/09/12 02:57:49;;;;;;;15.63;13.75;;;;;;;;;;4963341;29;20129;-84
2023/09/12 03:00:16;;;;;;;16.77;14.10;;;;;;;;;;4962883;29;20054;-83
2023/09/12 03:02:43;;;;;;;15.50;13.75;;;;;;;;;;4963548;29;20047;-84
2023/09/12 03:05:09;;;;;;;16.20;13.90;;;;;;;;;;4954389;29;20055;-84
2023/09/12 03:07:36;;;;;;;15.80;13.95;;;;;;;;;;4965207;29;20553;-83
2023/09/12 03:10:03;;;;;;;16.63;14.43;;;;;;;;;;4962935;29;20043;-85
2023/09/12 03:12:31;;;;;;;16.10;13.88;;;;;;;;;;4963459;28;20146;-85
2023/09/12 03:14:58;;;;;;;17.08;14.48;;;;;;;;;;4961314;29;20048;-83
2023/09/12 03:17:24;;;;;;;16.67;14.70;;;;;;;;;;4955758;29;20565;-84
2023/09/12 03:19:51;;;;;;;15.55;13.82;;;;;;;;;;4964329;29;20057;-83
2023/09/12 03:22:17;;;;;;;17.13;14.50;;;;;;;;;;4961981;29;20113;-85
2023/09/12 03:24:45;;;;;;;16.30;13.73;;;;;;;;;;4978142;29;20622;-84
2023/09/12 03:27:11;;;;;;;17.95;15.02;;;;;;;;;;4956300;29;20413;-84
2023/09/12 03:29:39;;;;;;;17.23;14.98;;;;;;;;;;4949966;29;20066;-83
2023/09/12 03:32:06;;;;;;;17.42;15.55;;;;;;;;;;4964061;28;20047;-83
2023/09/12 03:34:32;;;;;;;16.38;14.55;;;;;;;;;;4956339;29;20047;-84
2023/09/12 03:36:59;;;;;;;18.98;15.98;;;;;;;;;;4962486;29;20133;-83
2023/09/12 03:39:26;;;;;;;17.92;15.93;;;;;;;;;;4966229;29;20047;-82
2023/09/12 03:41:52;;;;;;;18.85;15.20;;;;;;;;;;4961885;28;20085;-84
2023/09/12 03:44:19;;;;;;;18.80;15.77;;;;;;;;;;4954642;29;20051;-84
2023/09/12 03:46:47;;;;;;;17.83;15.90;;;;;;;;;;4963860;29;20074;-83
2023/09/12 03:49:13;;;;;;;19.48;15.98;;;;;;;;;;4962434;29;20078;-85
2023/09/12 03:51:40;;;;;;;19.17;16.10;;;;;;;;;;4954586;29;20058;-85
2023/09/12 03:54:07;;;;;;;18.73;16.60;;;;;;;;;;4962467;28;20047;-84
2023/09/12 03:56:33;;;;;;;19.45;15.90;;;;;;;;;;4958596;29;20062;-84
2023/09/12 03:59:00;;;;;;;20.10;17.02;;;;;;;;;;4959855;29;20130;-84
2023/09/12 04:01:27;;;;;;;22.27;16.92;;;;;;;;;;4958016;28;20127;-84
2023/09/12 04:03:54;;;;;;;20.35;16.67;;;;;;;;;;4965259;29;20055;-84
2023/09/12 04:06:21;;;;;;;18.48;15.73;;;;;;;;;;4960460;29;20055;-84
2023/09/12 04:08:48;;;;;;;23.85;18.20;;;;;;;;;;4958710;29;20134;-85
2023/09/12 04:11:14;;;;;;;21.25;17.38;;;;;;;;;;4959177;28;20047;-84
2023/09/12 04:13:41;;;;;;;21.92;16.33;;;;;;;;;;4959122;29;20043;-84
2023/09/12 04:16:08;;;;;;;17.60;15.63;;;;;;;;;;4958958;29;20363;-84
2023/09/12 04:18:34;;;;;;;16.55;14.38;;;;;;;;;;4959368;29;20047;-83
2023/09/12 04:21:02;;;;;;;18.63;14.07;;;;;;;;;;4959260;29;20047;-86
2023/09/12 04:23:29;;;;;;;17.63;14.55;;;;;;;;;;4959150;29;20055;-84
2023/09/12 04:25:56;;;;;;;15.70;13.75;;;;;;;;;;4959752;29;20043;-84
2023/09/12 04:28:22;;;;;;;15.80;13.18;;;;;;;;;;4951087;29;20129;-84
2023/09/12 04:30:49;;;;;;;17.00;13.23;;;;;;;;;;4959611;28;20047;-82
2023/09/12 04:33:15;;;;;;;16.85;12.93;;;;;;;;;;4959968;29;20062;-85
2023/09/12 04:35:42;;;;;;;14.30;12.50;;;;;;;;;;4959891;29;20099;-83
2023/09/12 04:38:10;;;;;;;15.18;12.98;;;;;;;;;;4958739;29;20051;-83
2023/09/12 04:40:39;;;;;;;15.80;13.07;;;;;;;;;;4959289;29;20044;-81
2023/09/12 04:43:05;;;;;;;17.40;13.75;;;;;;;;;;4959945;29;20302;-84
2023/09/12 04:45:34;;;;;;;14.77;12.65;;;;;;;;;;4959827;29;20073;-84
2023/09/12 04:48:00;;;;;;;15.70;12.98;;;;;;;;;;4959480;29;20051;-84
2023/09/12 04:50:27;;;;;;;14.60;12.30;;;;;;;;;;4963807;29;20119;-85
2023/09/12 04:52:54;;;;;;;14.57;12.75;;;;;;;;;;4963028;29;20185;-83
2023/09/12 04:55:21;;;;;;;16.23;12.77;;;;;;;;;;4960814;29;20132;-82
2023/09/12 04:57:48;;;;;;;16.40;13.10;;;;;;;;;;4958976;29;20047;-82
2023/09/12 05:00:15;;;;;;;16.50;13.63;;;;;;;;;;4957976;29;20151;-85
2023/09/12 05:02:41;;;;;;;15.20;13.35;;;;;;;;;;4955879;29;20058;-83
2023/09/12 05:05:08;;;;;;;15.38;12.95;;;;;;;;;;4956132;29;20058;-83
2023/09/12 05:07:35;;;;;;;15.80;13.30;;;;;;;;;;4951644;29;20043;-84
2023/09/12 05:10:03;;;;;;;15.30;13.68;;;;;;;;;;4954381;29;20047;-84
2023/09/12 05:12:31;;;;;;;16.40;13.27;;;;;;;;;;4958572;28;20071;-83
2023/09/12 05:14:58;;;;;;;17.70;14.18;;;;;;;;;;4958533;29;20047;-83
2023/09/12 05:17:24;;;;;;;17.35;14.10;;;;;;;;;;4949020;29;20134;-84
2023/09/12 05:19:51;;;;;;;19.88;14.55;;;;;;;;;;4957350;29;20058;-82
2023/09/12 05:22:18;;;;;;;18.08;14.32;;;;;;;;;;4973280;29;20111;-84
2023/09/12 05:24:45;;;;;;;18.35;14.20;;;;;;;;;;4971427;29;20106;-84
2023/09/12 05:27:12;;;;;;;20.15;14.32;;;;;;;;;;4961240;29;20536;-86
2023/09/12 05:29:40;;;;;;;19.02;15.77;;;;;;;;;;4960440;29;20051;-83
2023/09/12 05:32:07;;;;;;;21.02;15.05;;;;;;;;;;4959494;29;20134;-84
2023/09/12 05:34:33;;;;;;;18.52;14.75;;;;;;;;;;4952243;29;20254;-84
2023/09/12 05:37:00;;;;;;;17.77;14.13;;;;;;;;;;4959517;29;20043;-84
2023/09/12 05:39:26;;;;;;;19.80;14.98;;;;;;;;;;4952997;29;20046;-85
2023/09/12 05:41:53;;;;;;;18.83;14.52;;;;;;;;;;4946972;28;20134;-86
2023/09/12 05:44:19;;;;;;;16.67;13.90;;;;;;;;;;4950395;29;20043;-85
2023/09/12 05:46:48;;;;;;;18.58;14.10;;;;;;;;;;4959526;29;20066;-84
2023/09/12 05:49:15;;;;;;;19.25;16.45;;;;;;;;;;4958466;29;20380;-84
2023/09/12 05:51:42;;;;;;;19.63;16.33;;;;;;;;;;4958892;28;20043;-84
2023/09/12 05:54:08;;;;;;;19.40;14.13;;;;;;;;;;4959346;29;20083;-83
2023/09/12 05:56:35;;;;;;;24.85;14.23;;;;;;;;;;4954793;29;20458;-84
2023/09/12 05:59:02;;;;;;;18.67;14.02;;;;;;;;;;4954803;29;20047;-84
2023/09/12 06:01:29;;;;;;;19.38;13.98;;;;;;;;;;4953716;29;20079;-84
2023/09/12 06:03:57;;;;;;;18.23;13.77;;;;;;;;;;4959502;29;20055;-83
2023/09/12 06:06:23;;;;;;;19.42;13.48;;;;;;;;;;4959209;29;20059;-85
2023/09/12 06:08:50;;;;;;;16.17;12.95;;;;;;;;;;4958328;29;20421;-86
2023/09/12 06:11:16;;;;;;;15.52;12.80;;;;;;;;;;4957474;28;20052;-86
2023/09/12 06:13:43;;;;;;;15.45;12.32;;;;;;;;;;4954477;29;20043;-86
2023/09/12 06:16:10;;;;;;;13.80;11.82;;;;;;;;;;4957452;29;20061;-85
2023/09/12 06:18:36;;;;;;;15.93;12.43;;;;;;;;;;4958501;29;20130;-86
2023/09/12 06:21:08;;;;;;;15.63;12.85;;;;;;;;;;4959367;29;20138;-87
2023/09/12 06:23:34;;;;;;;16.30;12.23;;;;;;;;;;4956404;29;20095;-85
2023/09/12 06:26:01;;;;;;;18.35;13.38;;;;;;;;;;4955090;29;20062;-85
2023/09/12 06:28:29;;;;;;;14.75;11.98;;;;;;;;;;4959705;29;20106;-85
2023/09/12 06:30:56;;;;;;;14.70;12.25;;;;;;;;;;4952662;28;20277;-85
2023/09/12 06:33:23;;;;;;;16.60;13.20;;;;;;;;;;4953352;29;20063;-85
2023/09/12 06:35:52;;;;;;;16.73;12.10;;;;;;;;;;4954929;29;20420;-85
2023/09/12 06:38:21;;;;;;;14.02;11.55;;;;;;;;;;4951437;29;20043;-85
2023/09/12 06:40:48;;;;;;;16.15;12.23;;;;;;;;;;4950188;28;20468;-84
2023/09/12 06:43:15;;;;;;;15.82;12.73;;;;;;;;;;4956035;29;20517;-86
2023/09/12 06:45:42;;;;;;;14.88;12.35;;;;;;;;;;4951796;29;20358;-86
2023/09/12 06:48:08;;;;;;;16.23;12.65;;;;;;;;;;4958311;29;20071;-86
2023/09/12 06:50:35;;;;;;;15.48;12.40;;;;;;;;;;4950843;29;20053;-86
2023/09/12 06:53:01;;;;;;;17.95;13.30;;;;;;;;;;4949713;29;20051;-86
2023/09/12 06:55:30;;;;;;;17.33;13.52;;;;;;;;;;4956205;29;20051;-86
2023/09/12 06:57:57;;;;;;;16.60;12.82;;;;;;;;;;4965131;29;20051;-86
2023/09/12 07:00:24;;;;;;;18.27;12.35;;;;;;;;;;4959785;29;20051;-86
2023/09/12 07:02:50;;;;;;;18.67;12.70;;;;;;;;;;4959967;28;20040;-84
2023/09/12 07:05:17;;;;;;;17.95;13.07;;;;;;;;;;4948979;29;20039;-85
2023/09/12 07:07:44;;;;;;;17.83;15.48;;;;;;;;;;4954502;29;20070;-84
2023/09/12 07:10:11;;;;;;;17.20;15.32;;;;;;;;;;4959491;29;20538;-84
2023/09/12 07:12:39;;;;;;;19.17;16.02;;;;;;;;;;4957483;29;20055;-84
2023/09/12 07:15:07;;;;;;;17.08;15.05;;;;;;;;;;4958573;29;20058;-84
2023/09/12 07:17:34;;;;;;;17.17;13.90;;;;;;;;;;4958310;29;20130;-85
2023/09/12 07:20:00;;;;;;;18.77;14.85;;;;;;;;;;4958592;29;20079;-84
2023/09/12 07:22:27;;;;;;;20.38;14.48;;;;;;;;;;4955971;28;20069;-85
2023/09/12 07:24:54;;;;;;;15.88;12.50;;;;;;;;;;4954330;29;20047;-81
2023/09/12 07:27:20;;;;;;;15.18;12.75;;;;;;;;;;4955531;29;20086;-86
2023/09/12 07:29:48;;;;;;;15.90;12.68;;;;;;;;;;4957802;28;20046;-82
2023/09/12 07:32:15;;;;;;;13.98;11.15;;;;;;;;;;4954864;29;20051;-82
2023/09/12 07:34:45;;;;;;;16.10;12.70;;;;;;;;;;4961730;29;20047;-83
2023/09/12 07:37:12;;;;;;;17.08;12.73;;;;;;;;;;4961893;29;20051;-82
2023/09/12 07:39:38;;;;;;;14.35;12.40;;;;;;;;;;4956496;29;20047;-83
2023/09/12 07:42:05;;;;;;;16.92;13.68;;;;;;;;;;4952489;28;20420;-84
2023/09/12 07:44:35;;;;;;;37.78;20.45;;;;;;;;;;4959117;29;20077;-90
2023/09/12 07:47:05;;;;;;;15.45;12.80;;;;;;;;;;5005236;23;20410;-66
2023/09/12 07:49:32;;;;;;;17.60;13.75;;;;;;;;;;4983295;28;20467;-65
2023/09/12 07:51:59;;;;;;;27.27;18.58;;;;;;;;;;4981014;28;20480;-65
2023/09/12 07:54:25;;;;;;;21.80;16.15;;;;;;;;;;4992169;28;20503;-65
2023/09/12 07:56:52;;;;;;;22.08;14.95;;;;;;;;;;4990068;28;20466;-62
2023/09/12 07:59:19;;;;;;;18.60;14.85;;;;;;;;;;4995906;28;20082;-62
2023/09/12 08:01:46;;;;;;;19.80;13.85;;;;;;;;;;4996202;28;20133;-61
2023/09/12 08:04:17;;;;;;;18.00;12.77;;;;;;;;;;4996945;28;20054;-63
2023/09/12 08:06:43;;;;;;;15.30;13.10;;;;;;;;;;4998961;28;20512;-64
2023/09/12 08:09:10;;;;;;;16.27;13.63;;;;;;;;;;4997735;28;20087;-62
2023/09/12 08:11:38;;;;;;;15.40;12.20;;;;;;;;;;4996246;28;20518;-62
2023/09/12 08:14:05;;;;;;;16.08;11.70;;;;;;;;;;4997346;28;20051;-62
2023/09/12 08:16:32;;;;;;;13.05;10.75;;;;;;;;;;4997907;28;20049;-62
2023/09/12 08:18:59;;;;;;;13.18;11.13;;;;;;;;;;4997860;28;20046;-64
2023/09/12 08:21:27;;;;;;;13.32;11.45;;;;;;;;;;4989613;28;20451;-65
2023/09/12 08:23:53;;;;;;;20.23;12.23;;;;;;;;;;4988677;28;20049;-66
2023/09/12 08:26:20;;;;;;;19.45;12.45;;;;;;;;;;4987738;28;20150;-65
2023/09/12 08:28:47;;;;;;;13.40;10.73;;;;;;;;;;4988465;28;20053;-66
2023/09/12 08:31:14;;;;;;;16.27;12.02;;;;;;;;;;4991267;28;20369;-67
2023/09/12 08:33:40;;;;;;;14.30;12.43;;;;;;;;;;4991137;28;20430;-66
2023/09/12 08:36:07;;;;;;;14.95;12.30;;;;;;;;;;4989229;28;20389;-66
2023/09/12 08:38:35;;;;;;;14.55;13.00;;;;;;;;;;4984807;28;20047;-66
2023/09/12 08:41:02;;;;;;;15.10;11.95;;;;;;;;;;4990568;28;20492;-64
2023/09/12 08:43:30;;;;;;;15.55;12.52;;;;;;;;;;4988872;28;20067;-64
2023/09/12 08:45:56;;;;;;;17.02;13.00;;;;;;;;;;4986766;28;20495;-63
2023/09/12 08:48:25;;;;;;;15.15;13.20;;;;;;;;;;4980245;28;20567;-64
2023/09/12 08:50:53;;;;;;;16.88;13.32;;;;;;;;;;4990399;28;20052;-64
2023/09/12 08:53:22;;;;;;;14.95;12.20;;;;;;;;;;4985604;28;20042;-65
2023/09/12 08:55:51;;;;;;;14.15;12.55;;;;;;;;;;4989616;28;20046;-64
2023/09/12 08:58:18;;;;;;;13.35;11.60;;;;;;;;;;4990525;28;20054;-64
2023/09/12 09:00:45;;;;;;;13.68;12.23;;;;;;;;;;4988608;28;20046;-65
2023/09/12 09:03:12;;;;;;;16.30;11.98;;;;;;;;;;4984901;28;20077;-64
2023/09/12 09:05:41;;;;;;;17.75;12.43;;;;;;;;;;4984341;28;20046;-64
2023/09/12 09:08:09;;;;;;;16.00;11.77;;;;;;;;;;4983321;28;20052;-63
2023/09/12 09:10:36;;;;;;;13.57;12.07;;;;;;;;;;4986379;28;20296;-63
2023/09/12 09:13:06;;;;;;;15.23;12.57;;;;;;;;;;4988696;28;20627;-63
2023/09/12 09:15:32;;;;;;;12.93;11.63;;;;;;;;;;4983707;28;20473;-62
2023/09/12 09:18:04;;;;;;;14.13;10.70;;;;;;;;;;4983207;28;20130;-65
2023/09/12 09:20:32;;;;;;;14.93;11.90;;;;;;;;;;4990891;28;20133;-66
2023/09/12 09:23:00;;;;;;;14.63;11.88;;;;;;;;;;4985929;28;20046;-66
2023/09/12 09:25:28;;;;;;;12.65;11.02;;;;;;;;;;4985686;28;20129;-67
2023/09/12 09:27:54;;;;;;;15.98;11.98;;;;;;;;;;4986473;28;20129;-66
2023/09/12 09:30:40;;;;;;;15.20;13.38;;;;;;;;;;4990195;28;20051;-66
2023/09/12 09:33:07;;;;;;;14.88;11.73;;;;;;;;;;4988189;28;20148;-66
2023/09/12 09:35:35;;;;;;;12.77;11.25;;;;;;;;;;4986960;28;20411;-67
2023/09/12 09:38:01;;;;;;;13.55;11.80;;;;;;;;;;4981908;28;20060;-68
2023/09/12 09:40:29;;;;;;;13.82;11.73;;;;;;;;;;4986131;28;20066;-66
2023/09/12 09:42:59;;;;;;;13.60;12.05;;;;;;;;;;4987477;28;20039;-67
2023/09/12 09:45:27;;;;;;;15.50;12.63;;;;;;;;;;4986553;28;20447;-66
2023/09/12 09:47:58;;;;;;;15.85;12.50;;;;;;;;;;4980454;28;20060;-66
2023/09/12 09:50:24;;;;;;;14.68;11.50;;;;;;;;;;4989667;28;20488;-63
2023/09/12 09:52:54;;;;;;;13.75;11.57;;;;;;;;;;4989108;28;20061;-65
2023/09/12 09:55:21;;;;;;;;;;;;;;;;;;4983753;28;20058;-66
2023/09/12 09:57:48;;;;;;;12.52;11.23;;;;;;;;;;4984356;28;19948;-66
2023/09/12 10:00:15;;;;;;;12.60;10.45;;;;;;;;;;4987764;28;20046;-67
2023/09/12 10:02:45;;;;;;;12.32;11.02;;;;;;;;;;4989086;28;20487;-66
2023/09/12 10:05:13;;;;;;;10.57;9.52;;;;;;;;;;4988834;28;20042;-66
2023/09/12 10:07:42;;;;;;;11.70;10.50;;;;;;;;;;4988887;28;20050;-66
2023/09/12 10:10:10;;;;;;;13.38;11.38;;;;;;;;;;4989318;28;20053;-66
2023/09/12 10:12:39;;;;;;;12.55;11.20;;;;;;;;;;4989152;28;20050;-66
2023/09/12 10:15:08;;;;;;;14.35;10.98;;;;;;;;;;4989131;28;20047;-66
2023/09/12 10:17:37;;;;;;;12.05;10.85;;;;;;;;;;4986179;28;20526;-66
2023/09/12 10:20:12;;;;;;;13.57;10.75;;;;;;;;;;4977857;28;20086;-66
2023/09/12 10:22:44;;;;;;;12.70;11.40;;;;;;;;;;4988965;28;20133;-66
2023/09/12 10:25:12;;;;;;;11.90;10.63;;;;;;;;;;4980534;28;20042;-66
2023/09/12 10:27:39;;;;;;;12.07;10.88;;;;;;;;;;4988457;28;20686;-65
2023/09/12 10:30:08;;;;;;;14.63;11.00;;;;;;;;;;4985574;28;20185;-67
2023/09/12 10:32:35;;;;;;;15.25;10.98;;;;;;;;;;4978265;28;20125;-66
2023/09/12 10:35:06;;;;;;;12.73;10.57;;;;;;;;;;4987157;28;20054;-66
2023/09/12 10:37:36;;;;;;;18.75;11.82;;;;;;;;;;4983359;28;20081;-66
2023/09/12 10:40:06;;;;;;;11.50;10.40;;;;;;;;;;4988323;28;20485;-65
2023/09/12 10:42:33;;;;;;;;;;;;;;;;;;4988345;28;20129;-66
2023/09/12 10:45:03;;;;;;;13.25;10.50;;;;;;;;;;4985009;28;19928;-66
2023/09/12 10:47:30;;;;;;;11.68;10.52;;;;;;;;;;4987496;28;20065;-66
2023/09/12 10:49:57;;;;;;;13.27;10.55;;;;;;;;;;4988099;28;20081;-65
2023/09/12 10:52:29;;;;;;;11.75;10.45;;;;;;;;;;4985206;28;20053;-65
2023/09/12 10:54:56;;;;;;;12.25;10.52;;;;;;;;;;4984310;28;20043;-66
2023/09/12 10:57:23;;;;;;;11.55;10.35;;;;;;;;;;4978249;28;20380;-68
2023/09/12 11:00:12;;;;;;;11.40;10.18;;;;;;;;;;4982230;28;20137;-66
2023/09/12 11:02:40;;;;;;;13.68;9.77;;;;;;;;;;4986715;28;20543;-66
2023/09/12 11:05:08;;;;;;;12.45;10.57;;;;;;;;;;4990995;28;20069;-66
2023/09/12 11:07:46;;;;;;;11.32;10.20;;;;;;;;;;4990823;28;20144;-67
2023/09/12 11:10:22;;;;;;;11.50;10.27;;;;;;;;;;4991382;28;20077;-67
2023/09/12 11:12:51;;;;;;;11.27;10.15;;;;;;;;;;4992134;28;20050;-67
2023/09/12 11:15:18;;;;;;;11.45;10.02;;;;;;;;;;4992728;28;20080;-67
2023/09/12 11:17:45;;;;;;;12.10;10.80;;;;;;;;;;4991740;28;20105;-67
2023/09/12 11:20:13;;;;;;;11.63;10.43;;;;;;;;;;4988857;28;20716;-67
2023/09/12 11:22:42;;;;;;;11.27;9.88;;;;;;;;;;4991705;28;20077;-68
2023/09/12 11:25:22;;;;;;;11.07;9.90;;;;;;;;;;4991513;28;20061;-67
2023/09/12 11:28:04;;;;;;;11.85;10.07;;;;;;;;;;4984312;28;20105;-67
2023/09/12 11:30:31;;;;;;;10.77;9.68;;;;;;;;;;4988300;28;20419;-67
2023/09/12 11:32:59;;;;;;;10.23;9.13;;;;;;;;;;4991558;28;20088;-66
2023/09/12 11:35:28;;;;;;;11.40;9.50;;;;;;;;;;4992404;28;20534;-67
2023/09/12 11:37:58;;;;;;;9.98;8.98;;;;;;;;;;4988962;28;20051;-66
2023/09/12 11:40:27;;;;;;;10.73;9.40;;;;;;;;;;4990969;28;20050;-66
2023/09/12 11:42:54;;;;;;;10.80;9.70;;;;;;;;;;4990786;28;20052;-66
2023/09/12 11:45:23;;;;;;;10.73;8.77;;;;;;;;;;4991970;28;20109;-66
2023/09/12 11:47:50;;;;;;;11.27;9.30;;;;;;;;;;4991020;28;20086;-66
2023/09/12 11:50:30;;;;;;;10.70;8.50;;;;;;;;;;4990074;28;20048;-66
2023/09/12 11:53:03;;;;;;;10.65;9.43;;;;;;;;;;4989309;28;20495;-66
2023/09/12 11:55:32;;;;;;;11.77;9.95;;;;;;;;;;4986186;28;20712;-66
2023/09/12 11:57:59;;;;;;;10.93;9.70;;;;;;;;;;4988042;28;20046;-66
2023/09/12 12:00:26;;;;;;;11.25;10.05;;;;;;;;;;4986599;28;20050;-66
2023/09/12 12:02:53;;;;;;;11.55;10.43;;;;;;;;;;4989430;28;20421;-66
2023/09/12 12:05:20;;;;;;;11.40;10.20;;;;;;;;;;4990240;28;20060;-66
2023/09/12 12:07:48;;;;;;;11.60;10.38;;;;;;;;;;4991460;28;20046;-66
2023/09/12 12:10:17;;;;;;;11.02;9.88;;;;;;;;;;4987570;28;20047;-67
2023/09/12 12:12:45;;;;;;;12.30;9.02;;;;;;;;;;4986279;28;20051;-66
2023/09/12 12:15:13;;;;;;;11.98;9.23;;;;;;;;;;4990703;28;20503;-66
2023/09/12 12:17:41;;;;;;;10.60;9.43;;;;;;;;;;4986816;28;20532;-67
2023/09/12 12:20:10;;;;;;;11.07;8.65;;;;;;;;;;4991815;28;20161;-66
2023/09/12 12:22:37;;;;;;;10.65;9.50;;;;;;;;;;4987757;28;20054;-66
2023/09/12 12:25:07;;;;;;;11.20;9.13;;;;;;;;;;4987911;28;20642;-66
2023/09/12 12:27:38;;;;;;;11.52;10.20;;;;;;;;;;4989312;28;20050;-67
2023/09/12 12:30:07;;;;;;;11.02;9.93;;;;;;;;;;4985888;28;20046;-67
2023/09/12 12:32:33;;;;;;;10.75;9.65;;;;;;;;;;4987002;28;20060;-67
2023/09/12 12:35:02;;;;;;;10.88;9.70;;;;;;;;;;4986702;28;20700;-67
2023/09/12 12:37:31;;;;;;;11.70;9.55;;;;;;;;;;4983671;28;20133;-67
2023/09/12 12:39:58;;;;;;;10.55;9.52;;;;;;;;;;4984401;28;20042;-66
2023/09/12 12:42:25;;;;;;;11.05;9.95;;;;;;;;;;4987547;28;20054;-66
2023/09/12 12:44:55;;;;;;;10.45;9.35;;;;;;;;;;4990102;28;20065;-67
2023/09/12 12:47:22;;;;;;;11.93;10.45;;;;;;;;;;4990368;28;20053;-66
2023/09/12 12:49:52;;;;;;;11.10;10.00;;;;;;;;;;4987455;28;20046;-67
2023/09/12 12:52:22;;;;;;;;;;;;;;;;;;4990894;28;20053;-67
2023/09/12 12:54:49;;;;;;;10.25;9.07;;;;;;;;;;4990163;28;20004;-66
2023/09/12 12:57:20;;;;;;;9.57;8.52;;;;;;;;;;4985675;28;20046;-67
2023/09/12 12:59:47;;;;;;;10.93;9.82;;;;;;;;;;4987053;28;20101;-67
2023/09/12 13:02:15;;;;;;;11.60;10.23;;;;;;;;;;4990425;28;20385;-67
2023/09/12 13:04:42;;;;;;;10.20;9.20;;;;;;;;;;4990396;28;20053;-66
2023/09/12 13:07:08;;;;;;;11.18;10.07;;;;;;;;;;4986405;28;20101;-66
2023/09/12 13:09:35;;;;;;;11.05;9.88;;;;;;;;;;4985455;28;20046;-66
2023/09/12 13:12:02;;;;;;;11.93;10.50;;;;;;;;;;4987987;28;20050;-67
2023/09/12 13:14:30;;;;;;;12.40;10.18;;;;;;;;;;4990259;28;20061;-67
2023/09/12 13:16:58;;;;;;;10.97;9.87;;;;;;;;;;4988745;28;20051;-67
2023/09/12 13:19:26;;;;;;;11.73;10.52;;;;;;;;;;4984669;28;20062;-67
2023/09/12 13:21:52;;;;;;;11.52;10.32;;;;;;;;;;4989428;28;20046;-67
2023/09/12 13:24:19;;;;;;;11.32;10.07;;;;;;;;;;4988530;28;20038;-66
2023/09/12 13:26:46;;;;;;;11.30;10.20;;;;;;;;;;4989139;28;20046;-66
2023/09/12 13:29:12;;;;;;;10.98;9.88;;;;;;;;;;4988541;28;20035;-66
2023/09/12 13:31:39;;;;;;;13.20;11.80;;;;;;;;;;4987387;28;20442;-66
2023/09/12 13:34:06;;;;;;;12.63;11.43;;;;;;;;;;4989771;28;20141;-67
2023/09/12 13:36:34;;;;;;;12.15;10.85;;;;;;;;;;4987496;28;20129;-66
2023/09/12 13:39:01;;;;;;;13.02;11.68;;;;;;;;;;4985724;28;20077;-66
2023/09/12 13:41:27;;;;;;;12.43;11.20;;;;;;;;;;4989849;28;20120;-67
2023/09/12 13:43:54;;;;;;;13.90;11.55;;;;;;;;;;4987329;28;20045;-66
2023/09/12 13:46:21;;;;;;;14.07;10.90;;;;;;;;;;4990053;28;20050;-66
2023/09/12 13:48:47;;;;;;;11.80;10.50;;;;;;;;;;4989634;28;20393;-66
2023/09/12 13:51:14;;;;;;;12.60;11.40;;;;;;;;;;4989667;28;20483;-66
2023/09/12 13:53:42;;;;;;;11.55;10.35;;;;;;;;;;4989665;28;20053;-66
2023/09/12 13:56:09;;;;;;;11.13;10.00;;;;;;;;;;4984298;28;20049;-66
2023/09/12 13:58:42;;;;;;;13.10;9.88;;;;;;;;;;4985505;28;20125;-66
2023/09/12 14:01:08;;;;;;;11.38;10.23;;;;;;;;;;4983703;28;20070;-67
2023/09/12 14:03:35;;;;;;;12.23;10.55;;;;;;;;;;4983223;28;20051;-67
2023/09/12 14:06:02;;;;;;;11.30;10.18;;;;;;;;;;4983579;28;20451;-67
2023/09/12 14:08:28;;;;;;;10.88;9.80;;;;;;;;;;4985044;28;20073;-68
2023/09/12 14:10:56;;;;;;;11.38;10.18;;;;;;;;;;4981053;28;20054;-66
2023/09/12 14:13:23;;;;;;;11.30;10.10;;;;;;;;;;4983298;28;20637;-62
2023/09/12 14:15:50;;;;;;;11.50;10.30;;;;;;;;;;4984520;28;20058;-66
2023/09/12 14:18:17;;;;;;;15.27;13.73;;;;;;;;;;4989514;28;20057;-66
2023/09/12 14:20:44;;;;;;;11.90;10.70;;;;;;;;;;4988495;28;20038;-66